Giulia I — 9HA3585 — position and weather

sailwx.info

Track history (hours):
 
Tides and Currents Weather Stations Pressure Air Temp Water Temp Dewpoint Dewpoint Depression Visibility Wind Speed Wind Dir Waves Ship Positions

Giulia I

Last reported at 2018-Feb-16 20:37 UTC. Time now 2018-Feb-24 12:20 UTC.
Position N 31°07' W 016°21'.

Length 177 m; draft 7.1 m.

Type: Cargo ship. MMSI: 229760000.

Date/timePositionNaut miles runAvg speedWind from/ knotsBaromVisibWave heightAir tempDewpointWater temp
2018-Feb-16 20:37N 31°07' W 016°21'5312.7
2018-Feb-16 16:25N 31°34' W 015°27'512.7
2018-Feb-16 16:00N 31°37' W 015°21'612.5
2018-Feb-16 15:30N 31°40' W 015°15'54812.5
2018-Feb-14 19:38N 35°58' W 005°34'110.5
2018-Feb-14 19:30N 35°59' W 005°32'510.4
2018-Feb-14 19:00N 36°01' W 005°26'612.0
2018-Feb-14 18:30N 36°06' W 005°23'2 0.5
2018-Feb-14 15:09N 36°08' W 005°22'0 0.1
2018-Feb-14 14:54N 36°08' W 005°22'0 0.0
2018-Feb-14 13:54N 36°08' W 005°22'0 0.0
2018-Feb-14 13:24N 36°08' W 005°22'0 0.1
2018-Feb-14 12:45N 36°08' W 005°22'0 0.1
2018-Feb-14 12:24N 36°08' W 005°22'0 0.0
2018-Feb-14 12:00N 36°08' W 005°22'0 0.0
2018-Feb-14 11:21N 36°08' W 005°22'0 0.1
2018-Feb-14 10:51N 36°08' W 005°22'0 0.0
2018-Feb-14 10:27N 36°08' W 005°22'0 0.2
2018-Feb-14 09:57N 36°08' W 005°23'2 3.0
2018-Feb-14 09:26N 36°07' W 005°23'3 6.8
2018-Feb-14 09:01N 36°06' W 005°19'2 2.9
2018-Feb-14 08:27N 36°05' W 005°17'1 1.2
2018-Feb-14 08:00N 36°05' W 005°18'2 3.3
2018-Feb-14 07:24N 36°04' W 005°16'2 5.3
2018-Feb-14 07:00N 36°04' W 005°13'  
2018-Feb-09 14:30N 35°58' W 005°22'  
Track history (hours):
 
Tides and Currents Weather Stations Pressure Air Temp Water Temp Dewpoint Dewpoint Depression Visibility Wind Speed Wind Dir Waves Ship Positions

Giulia I

Last reported at 2018-Feb-16 20:37 UTC. Time now 2018-Feb-24 12:20 UTC.
Position N 31°07' W 016°21'.

Length 177 m; draft 7.1 m.

Type: Cargo ship. MMSI: 229760000.

Date/timePositionNaut miles runAvg speedWind from/ knotsBaromVisibWave heightAir tempDewpointWater temp
2018-Feb-16 20:37N 31°07' W 016°21'5312.7
2018-Feb-16 16:25N 31°34' W 015°27'512.7
2018-Feb-16 16:00N 31°37' W 015°21'612.5
2018-Feb-16 15:30N 31°40' W 015°15'54812.5
2018-Feb-14 19:38N 35°58' W 005°34'110.5
2018-Feb-14 19:30N 35°59' W 005°32'510.4
2018-Feb-14 19:00N 36°01' W 005°26'612.0
2018-Feb-14 18:30N 36°06' W 005°23'2 0.5
2018-Feb-14 15:09N 36°08' W 005°22'0 0.1
2018-Feb-14 14:54N 36°08' W 005°22'0 0.0
2018-Feb-14 13:54N 36°08' W 005°22'0 0.0
2018-Feb-14 13:24N 36°08' W 005°22'0 0.1
2018-Feb-14 12:45N 36°08' W 005°22'0 0.1
2018-Feb-14 12:24N 36°08' W 005°22'0 0.0
2018-Feb-14 12:00N 36°08' W 005°22'0 0.0
2018-Feb-14 11:21N 36°08' W 005°22'0 0.1
2018-Feb-14 10:51N 36°08' W 005°22'0 0.0
2018-Feb-14 10:27N 36°08' W 005°22'0 0.2
2018-Feb-14 09:57N 36°08' W 005°23'2 3.0
2018-Feb-14 09:26N 36°07' W 005°23'3 6.8
2018-Feb-14 09:01N 36°06' W 005°19'2 2.9
2018-Feb-14 08:27N 36°05' W 005°17'1 1.2
2018-Feb-14 08:00N 36°05' W 005°18'2 3.3
2018-Feb-14 07:24N 36°04' W 005°16'2 5.3
2018-Feb-14 07:00N 36°04' W 005°13'  
2018-Feb-09 14:30N 35°58' W 005°22'  

Dump ship's entire track history